createdAt,value
2019-05-14T00:01:51.412Z,8.70
2019-05-14T00:06:55.095Z,8.60
2019-05-14T00:12:02.267Z,8.50
2019-05-14T00:17:05.957Z,8.50
2019-05-14T00:22:11.649Z,8.40
2019-05-14T00:27:18.371Z,8.40
2019-05-14T00:32:24.490Z,8.40
2019-05-14T00:37:32.178Z,8.40
2019-05-14T00:42:36.848Z,8.30
2019-05-14T00:47:41.938Z,8.20
2019-05-14T00:52:51.489Z,8.20
2019-05-14T00:57:56.804Z,8.10
2019-05-14T01:03:02.186Z,8.00
2019-05-14T01:08:07.335Z,7.90
2019-05-14T01:13:12.171Z,7.90
2019-05-14T01:18:16.598Z,7.80
2019-05-14T01:23:21.728Z,7.80
2019-05-14T01:28:27.317Z,7.70
2019-05-14T01:33:32.078Z,7.60
2019-05-14T01:38:36.786Z,7.60
2019-05-14T01:43:42.884Z,7.60
2019-05-14T01:48:47.408Z,7.50
2019-05-14T01:53:52.229Z,7.50
2019-05-14T01:58:58.569Z,7.40
2019-05-14T02:04:03.194Z,7.40
2019-05-14T02:09:11.169Z,7.30
2019-05-14T02:14:17.355Z,7.30
2019-05-14T02:19:23.569Z,7.20
2019-05-14T02:24:28.126Z,7.20
2019-05-14T02:29:32.644Z,7.20
2019-05-14T02:34:40.027Z,7.10
2019-05-14T02:39:45.283Z,7.00
2019-05-14T02:44:49.938Z,7.00
2019-05-14T02:49:58.759Z,6.90
2019-05-14T02:55:04.580Z,6.90
2019-05-14T03:00:10.632Z,6.80
2019-05-14T03:05:19.293Z,6.80
2019-05-14T03:10:23.177Z,6.80
2019-05-14T03:15:30.221Z,6.70
2019-05-14T03:20:39.353Z,6.70
2019-05-14T03:25:49.141Z,6.60
2019-05-14T03:30:53.428Z,6.60
2019-05-14T03:36:07.483Z,6.60
2019-05-14T03:41:09.102Z,6.60
2019-05-14T03:46:13.985Z,6.50
2019-05-14T03:51:31.954Z,6.50
2019-05-14T03:56:39.423Z,6.50
2019-05-14T04:01:43.106Z,6.40
2019-05-14T04:06:49.846Z,6.30
2019-05-14T04:11:59.223Z,6.20
2019-05-14T04:17:13.790Z,6.10
2019-05-14T04:22:19.000Z,6.10
2019-05-14T04:27:25.376Z,6.10
2019-05-14T04:32:31.614Z,6.10
2019-05-14T04:37:39.934Z,6.20
2019-05-14T04:42:44.463Z,6.10
2019-05-14T04:47:49.786Z,6.20
2019-05-14T04:53:05.383Z,6.20
2019-05-14T04:58:03.309Z,6.20
2019-05-14T05:03:12.600Z,6.30
2019-05-14T05:08:15.309Z,6.30
2019-05-14T05:13:19.699Z,6.40
2019-05-14T05:18:24.117Z,6.50
2019-05-14T05:23:28.543Z,6.70
2019-05-14T05:28:32.926Z,6.80
2019-05-14T05:33:38.346Z,7.00
2019-05-14T05:38:43.032Z,7.10
2019-05-14T05:43:48.360Z,7.20
2019-05-14T05:49:00.799Z,7.30
2019-05-14T05:54:24.508Z,7.40
2019-05-14T05:59:29.392Z,7.50
2019-05-14T06:04:35.616Z,7.60
2019-05-14T06:09:40.000Z,7.80
2019-05-14T06:14:44.389Z,8.00
2019-05-14T06:19:48.881Z,8.20
2019-05-14T06:24:53.267Z,8.30
2019-05-14T06:29:58.328Z,8.40
2019-05-14T06:35:04.389Z,8.50
2019-05-14T06:40:09.792Z,8.70
2019-05-14T06:45:14.280Z,8.70
2019-05-14T06:50:19.073Z,8.70
2019-05-14T06:55:23.673Z,8.70
2019-05-14T07:00:28.788Z,8.80
2019-05-14T07:05:35.070Z,8.80
2019-05-14T07:10:39.667Z,8.90
2019-05-14T07:15:44.647Z,9.00
2019-05-14T07:20:49.049Z,9.20
2019-05-14T07:25:53.444Z,9.30
2019-05-14T07:30:59.371Z,9.60
2019-05-14T07:36:04.026Z,9.70
2019-05-14T07:41:09.158Z,9.80
2019-05-14T07:46:13.915Z,9.80
2019-05-14T07:51:19.091Z,10.00
2019-05-14T07:56:23.792Z,10.10
2019-05-14T08:01:28.411Z,10.30
2019-05-14T08:06:32.851Z,10.50
2019-05-14T08:11:38.724Z,10.60
2019-05-14T08:16:43.423Z,10.70
2019-05-14T08:21:48.179Z,11.10
2019-05-14T08:26:52.757Z,11.20
2019-05-14T08:31:58.331Z,11.10
2019-05-14T08:37:04.304Z,10.90
2019-05-14T08:42:09.006Z,10.90
2019-05-14T08:47:13.851Z,10.90
2019-05-14T08:52:19.195Z,11.20
2019-05-14T08:57:23.947Z,11.30
2019-05-14T09:02:28.702Z,11.30
2019-05-14T09:07:33.209Z,11.60
2019-05-14T09:12:38.837Z,11.70
2019-05-14T09:17:43.512Z,11.80
2019-05-14T09:22:48.984Z,12.20
2019-05-14T09:27:53.673Z,12.00
2019-05-14T09:32:59.421Z,12.30
2019-05-14T09:38:04.062Z,12.50
2019-05-14T09:43:09.193Z,12.80
2019-05-14T09:48:13.785Z,12.70
2019-05-14T09:53:18.274Z,12.90
2019-05-14T09:58:22.662Z,13.10
2019-05-14T10:03:27.287Z,13.40
2019-05-14T10:08:31.720Z,13.50
2019-05-14T10:13:36.124Z,13.60
2019-05-14T10:18:40.510Z,13.70
2019-05-14T10:23:45.091Z,13.90
2019-05-14T10:28:49.560Z,14.20
2019-05-14T10:33:54.022Z,14.40
2019-05-14T10:38:59.084Z,14.50
2019-05-14T10:44:03.551Z,14.60
2019-05-14T10:49:19.946Z,14.80
2019-05-14T10:54:23.658Z,15.10
2019-05-14T10:59:20.455Z,15.40
2019-05-14T11:04:24.863Z,15.60
2019-05-14T11:09:29.285Z,16.10
2019-05-14T11:14:33.828Z,16.20
2019-05-14T11:19:38.998Z,16.40
2019-05-14T11:25:03.506Z,16.80
2019-05-14T11:30:09.116Z,17.00
2019-05-14T11:35:13.913Z,16.90
2019-05-14T11:40:19.969Z,17.20
2019-05-14T11:45:26.358Z,17.50
2019-05-14T11:50:30.802Z,17.70
2019-05-14T11:55:35.262Z,17.80
2019-05-14T12:00:39.722Z,18.10
2019-05-14T12:05:44.216Z,18.30
2019-05-14T12:10:48.656Z,18.60
2019-05-14T12:15:53.090Z,18.60
2019-05-14T12:20:59.420Z,18.80
2019-05-14T12:26:03.734Z,18.60
2019-05-14T12:31:09.381Z,18.60
2019-05-14T12:36:14.058Z,19.00
2019-05-14T12:41:19.415Z,18.90
2019-05-14T12:46:24.079Z,18.70
2019-05-14T12:51:28.589Z,19.10
2019-05-14T12:56:33.062Z,19.40
2019-05-14T13:01:37.476Z,19.20
2019-05-14T13:06:41.929Z,19.40
2019-05-14T13:11:48.043Z,19.20
2019-05-14T13:16:54.564Z,19.90
2019-05-14T13:22:13.076Z,19.80
2019-05-14T13:27:05.368Z,19.40
2019-05-14T13:32:12.315Z,20.00
2019-05-14T13:37:16.052Z,19.80
2019-05-14T13:42:20.461Z,19.70
2019-05-14T13:47:25.245Z,20.20
2019-05-14T13:52:29.639Z,20.70
2019-05-14T13:57:34.016Z,20.90
2019-05-14T14:02:38.514Z,20.30
2019-05-14T14:07:44.840Z,20.20
2019-05-14T14:12:49.823Z,20.90
2019-05-14T14:17:54.524Z,20.90
2019-05-14T14:23:09.200Z,20.40
2019-05-14T14:28:05.118Z,20.80
2019-05-14T14:33:09.592Z,20.60
2019-05-14T14:38:14.038Z,20.10
2019-05-14T14:43:18.996Z,20.20
2019-05-14T14:48:23.654Z,20.20
2019-05-14T14:53:46.104Z,20.30
2019-05-14T14:58:34.172Z,20.10
2019-05-14T15:03:38.886Z,20.20
2019-05-14T15:08:43.330Z,20.50
2019-05-14T15:13:48.248Z,20.80
2019-05-14T15:18:52.958Z,20.90
2019-05-14T15:24:09.412Z,20.90
2019-05-14T15:29:03.752Z,20.80
2019-05-14T15:34:09.021Z,20.20
2019-05-14T15:39:13.633Z,19.90
2019-05-14T15:44:19.564Z,19.80
2019-05-14T15:49:25.331Z,20.10
2019-05-14T15:54:42.470Z,20.10
2019-05-14T15:59:35.935Z,19.50
2019-05-14T16:04:40.541Z,19.20
2019-05-14T16:09:44.970Z,19.20
2019-05-14T16:14:49.805Z,19.10
2019-05-14T16:19:54.294Z,18.90
2019-05-14T16:25:00.954Z,18.50
2019-05-14T16:30:09.429Z,18.50
2019-05-14T16:35:13.414Z,18.60
2019-05-14T16:40:19.195Z,18.30
2019-05-14T16:45:28.911Z,18.00
2019-05-14T16:50:33.554Z,17.90
2019-05-14T16:55:38.501Z,17.80
2019-05-14T17:00:43.118Z,17.70
2019-05-14T17:05:48.683Z,17.50
2019-05-14T17:10:53.240Z,17.40
2019-05-14T17:15:58.912Z,17.40
2019-05-14T17:21:04.981Z,17.50
2019-05-14T17:26:09.414Z,17.30
2019-05-14T17:31:13.844Z,17.30
2019-05-14T17:36:18.877Z,17.30
2019-05-14T17:41:23.625Z,17.40
2019-05-14T17:46:28.970Z,17.30
2019-05-14T17:51:33.672Z,17.00
2019-05-14T17:56:39.046Z,17.00
2019-05-14T18:01:44.846Z,16.90
2019-05-14T18:06:49.362Z,16.90
2019-05-14T18:11:53.819Z,16.90
2019-05-14T18:16:58.624Z,16.70
2019-05-14T18:22:03.214Z,16.60
2019-05-14T18:27:08.343Z,16.50
2019-05-14T18:32:12.981Z,16.40
2019-05-14T18:37:18.288Z,16.40
2019-05-14T18:42:22.956Z,16.20
2019-05-14T18:47:29.048Z,16.10
2019-05-14T18:52:35.482Z,16.00
2019-05-14T18:57:39.895Z,15.80
2019-05-14T19:02:44.253Z,15.80
2019-05-14T19:07:48.860Z,15.70
2019-05-14T19:12:54.125Z,15.60
2019-05-14T19:18:01.193Z,15.60
2019-05-14T19:23:04.618Z,15.50
2019-05-14T19:28:09.219Z,15.40
2019-05-14T19:33:13.704Z,15.30
2019-05-14T19:38:21.679Z,15.20
2019-05-14T19:43:31.572Z,15.10
2019-05-14T19:48:41.518Z,15.00
2019-05-14T19:53:54.849Z,14.90
2019-05-14T19:58:59.843Z,14.80
2019-05-14T20:04:31.111Z,14.70
2019-05-14T20:09:39.062Z,14.60
2019-05-14T20:14:44.675Z,14.50
2019-05-14T20:19:51.917Z,14.30
2019-05-14T20:25:11.551Z,14.30
2019-05-14T20:30:04.515Z,14.20
2019-05-14T20:35:10.543Z,14.10
2019-05-14T20:40:30.488Z,14.00
2019-05-14T20:45:38.949Z,13.90
2019-05-14T20:50:47.827Z,13.70
2019-05-14T20:55:54.084Z,13.60
2019-05-14T21:01:02.427Z,13.50
2019-05-14T21:06:09.050Z,13.40
2019-05-14T21:11:19.108Z,13.30
2019-05-14T21:16:28.416Z,13.20
2019-05-14T21:21:45.604Z,13.10
2019-05-14T21:26:51.861Z,13.00
2019-05-14T21:32:01.351Z,12.80
2019-05-14T21:37:06.181Z,12.80
2019-05-14T21:42:12.569Z,12.60
2019-05-14T21:47:22.488Z,12.60
2019-05-14T21:52:29.031Z,12.50
2019-05-14T21:57:37.924Z,12.40
2019-05-14T22:02:49.107Z,12.30
2019-05-14T22:07:53.102Z,12.20
2019-05-14T22:12:59.562Z,12.10
2019-05-14T22:18:14.931Z,12.00
2019-05-14T22:23:13.989Z,11.80
2019-05-14T22:28:19.062Z,11.70
2019-05-14T22:33:28.318Z,11.50
2019-05-14T22:38:32.632Z,11.50
2019-05-14T22:43:43.614Z,11.40
2019-05-14T22:48:51.266Z,11.30
2019-05-14T22:53:58.858Z,11.20
2019-05-14T22:59:03.445Z,11.20
2019-05-14T23:04:08.997Z,11.10
2019-05-14T23:09:18.447Z,11.00
2019-05-14T23:14:20.457Z,11.00
2019-05-14T23:19:25.234Z,10.90
2019-05-14T23:24:31.407Z,10.90
2019-05-14T23:29:39.405Z,10.80
2019-05-14T23:34:45.150Z,10.70
2019-05-14T23:39:51.056Z,10.70
2019-05-14T23:44:59.361Z,10.60
2019-05-14T23:50:04.211Z,10.50
2019-05-14T23:55:12.495Z,10.50
